Time;durP1;ratioP1;P1;durP2;ratioP2;P2;SDS_P1;SDS_P2;PMS_P1;PMS_P2;Temp;Humidity;BMP_temperature;BMP_pressure;BME280_temperature;BME280_humidity;BME280_pressure;Samples;Min_cycle;Max_cycle;Signal;HPM_P1;HPM_P2
2022/06/30 00:02:11;;;;;;;6.43;3.55;;;;;;;;;;4976875;28;20038;-73
2022/06/30 00:04:57;;;;;;;7.40;5.00;;;;;;;;;;4988327;28;20389;-73
2022/06/30 00:07:43;;;;;;;7.20;4.43;;;;;;;;;;5029376;28;20025;-73
2022/06/30 00:10:29;;;;;;;7.38;4.40;;;;;;;;;;4973698;28;20031;-74
2022/06/30 00:13:15;;;;;;;5.38;4.28;;;;;;;;;;4978601;28;20066;-73
2022/06/30 00:16:00;;;;;;;7.97;4.10;;;;;;;;;;4964083;28;20045;-66
2022/06/30 00:18:46;;;;;;;5.38;3.53;;;;;;;;;;4981942;28;20027;-65
2022/06/30 00:21:32;;;;;;;7.97;4.00;;;;;;;;;;4966655;28;20031;-68
2022/06/30 00:24:17;;;;;;;4.97;3.40;;;;;;;;;;4968857;28;20054;-67
2022/06/30 00:27:03;;;;;;;7.07;3.53;;;;;;;;;;4970181;28;20460;-67
2022/06/30 00:29:48;;;;;;;4.97;3.67;;;;;;;;;;4979102;28;20057;-69
2022/06/30 00:32:34;;;;;;;5.47;3.58;;;;;;;;;;4998645;28;20046;-63
2022/06/30 00:35:20;;;;;;;6.95;3.70;;;;;;;;;;4970415;28;20058;-64
2022/06/30 00:38:05;;;;;;;5.15;3.53;;;;;;;;;;4976057;28;20023;-65
2022/06/30 00:40:51;;;;;;;6.85;3.80;;;;;;;;;;4981150;28;20450;-64
2022/06/30 00:43:43;;;;;;;4.68;3.45;;;;;;;;;;4975083;28;20035;-64
2022/06/30 00:46:29;;;;;;;5.45;3.55;;;;;;;;;;4971672;28;20023;-63
2022/06/30 00:49:16;;;;;;;5.45;3.78;;;;;;;;;;5004056;28;20053;-74
2022/06/30 00:52:02;;;;;;;7.05;4.18;;;;;;;;;;4983738;28;20485;-64
2022/06/30 00:54:50;;;;;;;6.63;3.78;;;;;;;;;;4972430;28;20026;-64
2022/06/30 00:57:37;;;;;;;7.68;4.00;;;;;;;;;;4986457;28;20690;-64
2022/06/30 01:00:23;;;;;;;5.80;3.95;;;;;;;;;;4981497;28;20043;-64
2022/06/30 01:03:09;;;;;;;6.85;4.15;;;;;;;;;;4981473;28;20117;-64
2022/06/30 01:05:55;;;;;;;8.93;4.50;;;;;;;;;;4974126;28;20031;-64
2022/06/30 01:08:40;;;;;;;6.38;3.83;;;;;;;;;;4982937;28;20519;-74
2022/06/30 01:14:30;;;;;;;5.43;3.90;;;;;;;;;;4964608;28;20011;-70
2022/06/30 01:17:16;;;;;;;7.15;3.78;;;;;;;;;;4979848;28;20037;-71
2022/06/30 01:20:01;;;;;;;5.03;3.55;;;;;;;;;;4981551;28;20033;-72
2022/06/30 01:22:48;;;;;;;6.03;3.30;;;;;;;;;;4973536;28;20033;-71
2022/06/30 01:25:33;;;;;;;6.70;4.13;;;;;;;;;;4965874;28;20054;-64
2022/06/30 01:28:19;;;;;;;6.82;4.22;;;;;;;;;;4983990;28;20023;-67
2022/06/30 01:31:05;;;;;;;5.75;3.72;;;;;;;;;;4976742;28;20034;-67
2022/06/30 01:33:51;;;;;;;8.00;4.20;;;;;;;;;;4972737;28;20034;-67
2022/06/30 01:36:36;;;;;;;8.05;3.95;;;;;;;;;;4975412;28;20062;-67
2022/06/30 01:39:22;;;;;;;6.60;3.70;;;;;;;;;;4977771;28;20026;-67
2022/06/30 01:42:08;;;;;;;8.73;4.40;;;;;;;;;;4971970;28;20030;-68
2022/06/30 01:44:53;;;;;;;7.75;3.83;;;;;;;;;;4975425;28;20492;-67
2022/06/30 01:47:39;;;;;;;4.82;3.67;;;;;;;;;;4980434;28;20075;-67
2022/06/30 01:50:26;;;;;;;6.47;4.30;;;;;;;;;;4965304;28;20054;-66
2022/06/30 01:53:12;;;;;;;6.95;4.45;;;;;;;;;;4973139;28;20110;-65
2022/06/30 01:55:57;;;;;;;8.43;4.57;;;;;;;;;;4982623;28;20107;-66
2022/06/30 01:58:43;;;;;;;9.15;4.30;;;;;;;;;;4973606;28;20026;-67
2022/06/30 02:01:29;;;;;;;5.20;3.75;;;;;;;;;;4970896;28;20035;-69
2022/06/30 02:07:19;;;;;;;8.82;4.00;;;;;;;;;;4972227;28;20390;-72
2022/06/30 02:10:08;;;;;;;7.07;4.35;;;;;;;;;;4977121;28;20038;-73
2022/06/30 02:12:54;;;;;;;5.88;4.72;;;;;;;;;;4974500;28;20050;-74
2022/06/30 02:15:39;;;;;;;7.32;4.38;;;;;;;;;;4982872;28;20027;-73
2022/06/30 02:18:25;;;;;;;6.68;4.57;;;;;;;;;;4975856;28;20096;-73
2022/06/30 02:21:10;;;;;;;6.18;3.58;;;;;;;;;;4966597;28;20023;-69
2022/06/30 02:23:56;;;;;;;6.50;4.20;;;;;;;;;;4979822;28;20398;-73
2022/06/30 02:26:41;;;;;;;5.53;3.92;;;;;;;;;;4995340;28;20034;-73
2022/06/30 02:29:27;;;;;;;6.68;4.55;;;;;;;;;;4963342;28;20038;-74
2022/06/30 02:32:12;;;;;;;7.47;4.20;;;;;;;;;;4972083;28;20528;-72
2022/06/30 02:34:58;;;;;;;6.50;4.13;;;;;;;;;;5003811;28;20100;-73
2022/06/30 02:37:44;;;;;;;7.43;4.38;;;;;;;;;;4977504;28;20027;-66
2022/06/30 02:40:29;;;;;;;6.53;4.65;;;;;;;;;;4985846;28;20035;-67
2022/06/30 02:43:15;;;;;;;6.35;4.45;;;;;;;;;;4975842;28;20089;-73
2022/06/30 02:46:01;;;;;;;8.75;4.88;;;;;;;;;;5033835;28;20056;-73
2022/06/30 02:48:46;;;;;;;5.30;3.92;;;;;;;;;;4980987;28;20050;-72
2022/06/30 02:51:32;;;;;;;9.07;4.57;;;;;;;;;;4992690;28;20038;-72
2022/06/30 02:54:17;;;;;;;6.65;4.47;;;;;;;;;;4978866;28;20071;-74
2022/06/30 02:57:03;;;;;;;6.82;4.50;;;;;;;;;;4971649;28;20071;-69
2022/06/30 02:59:49;;;;;;;6.72;4.40;;;;;;;;;;4972890;28;20027;-70
2022/06/30 03:02:35;;;;;;;6.78;4.28;;;;;;;;;;4988407;28;20031;-69
2022/06/30 03:05:20;;;;;;;7.18;3.97;;;;;;;;;;4992560;28;20057;-71
2022/06/30 03:08:06;;;;;;;6.47;4.28;;;;;;;;;;4981436;28;20034;-70
2022/06/30 03:10:52;;;;;;;8.73;4.28;;;;;;;;;;4974349;28;20042;-69
2022/06/30 03:13:37;;;;;;;8.07;4.15;;;;;;;;;;4973373;28;20115;-70
2022/06/30 03:16:23;;;;;;;6.63;4.57;;;;;;;;;;4974447;28;20055;-75
2022/06/30 03:19:08;;;;;;;6.53;4.30;;;;;;;;;;4978626;28;20059;-74
2022/06/30 03:21:54;;;;;;;6.57;4.75;;;;;;;;;;4975292;28;20081;-73
2022/06/30 03:24:39;;;;;;;9.35;4.20;;;;;;;;;;4965868;28;20054;-74
2022/06/30 03:27:25;;;;;;;5.82;4.05;;;;;;;;;;4993419;28;20080;-73
2022/06/30 03:30:11;;;;;;;8.18;4.18;;;;;;;;;;4975644;28;20088;-74
2022/06/30 03:32:57;;;;;;;9.93;5.55;;;;;;;;;;4970157;28;20092;-69
2022/06/30 03:35:42;;;;;;;6.57;4.70;;;;;;;;;;5021388;28;20027;-69
2022/06/30 03:38:28;;;;;;;7.32;4.80;;;;;;;;;;4975460;28;20099;-74
2022/06/30 03:41:14;;;;;;;6.45;4.20;;;;;;;;;;4973449;28;20065;-73
2022/06/30 03:43:59;;;;;;;7.05;3.92;;;;;;;;;;5027320;28;20085;-73
2022/06/30 03:46:45;;;;;;;7.78;4.50;;;;;;;;;;4982830;28;20020;-72
2022/06/30 03:49:31;;;;;;;7.28;4.28;;;;;;;;;;4979128;28;20123;-73
2022/06/30 03:52:16;;;;;;;6.55;4.55;;;;;;;;;;4983400;28;20028;-74
2022/06/30 03:55:02;;;;;;;5.13;4.63;;;;;;;;;;5006978;28;20390;-73
2022/06/30 03:57:48;;;;;;;8.05;4.60;;;;;;;;;;5018794;28;20102;-72
2022/06/30 04:00:34;;;;;;;8.23;4.93;;;;;;;;;;4971834;28;20049;-73
2022/06/30 04:03:20;;;;;;;10.60;4.32;;;;;;;;;;4973228;28;20037;-73
2022/06/30 04:06:05;;;;;;;9.73;4.80;;;;;;;;;;5026737;28;20034;-73
2022/06/30 04:08:51;;;;;;;8.65;4.30;;;;;;;;;;4984220;28;20038;-72
2022/06/30 04:11:36;;;;;;;7.82;4.65;;;;;;;;;;4974922;28;20023;-66
2022/06/30 04:14:22;;;;;;;7.47;4.15;;;;;;;;;;4978743;28;20026;-73
2022/06/30 04:17:08;;;;;;;10.35;5.68;;;;;;;;;;5008839;28;20025;-73
2022/06/30 04:19:53;;;;;;;11.32;4.53;;;;;;;;;;4994662;28;20493;-75
2022/06/30 04:22:39;;;;;;;9.80;6.10;;;;;;;;;;4978808;28;20030;-75
2022/06/30 04:25:24;;;;;;;8.75;4.35;;;;;;;;;;5001737;28;20038;-75
2022/06/30 04:28:10;;;;;;;8.02;5.07;;;;;;;;;;4983969;28;20030;-75
2022/06/30 04:33:59;;;;;;;10.85;5.05;;;;;;;;;;4975798;28;20382;-70
2022/06/30 04:36:45;;;;;;;6.28;4.70;;;;;;;;;;5016200;28;20035;-71
2022/06/30 04:39:31;;;;;;;8.27;4.43;;;;;;;;;;4977071;28;20437;-69
2022/06/30 04:42:16;;;;;;;8.10;4.60;;;;;;;;;;4972691;28;20030;-69
2022/06/30 04:45:02;;;;;;;10.30;4.88;;;;;;;;;;4979589;28;20053;-69
2022/06/30 04:47:48;;;;;;;7.95;5.28;;;;;;;;;;4977450;28;20037;-69
2022/06/30 04:50:33;;;;;;;8.63;5.18;;;;;;;;;;4977895;28;20042;-70
2022/06/30 04:53:19;;;;;;;11.48;5.53;;;;;;;;;;4970135;28;20401;-70
2022/06/30 04:56:05;;;;;;;8.50;4.82;;;;;;;;;;4995023;28;20031;-70
2022/06/30 04:58:51;;;;;;;7.82;4.93;;;;;;;;;;4969929;28;20041;-71
2022/06/30 05:01:36;;;;;;;7.75;4.68;;;;;;;;;;4975269;28;20019;-72
2022/06/30 05:04:22;;;;;;;11.43;5.30;;;;;;;;;;4973437;28;20057;-71
2022/06/30 05:07:07;;;;;;;8.15;4.75;;;;;;;;;;4960492;28;20049;-64
2022/06/30 05:09:53;;;;;;;8.80;4.50;;;;;;;;;;5013543;28;20034;-74
2022/06/30 05:12:38;;;;;;;10.35;4.80;;;;;;;;;;4971313;28;20394;-74
2022/06/30 05:15:25;;;;;;;7.47;4.35;;;;;;;;;;4960682;28;20031;-74
2022/06/30 05:18:11;;;;;;;6.43;4.53;;;;;;;;;;4962446;28;20105;-75
2022/06/30 05:20:56;;;;;;;9.10;4.93;;;;;;;;;;4968780;28;20030;-73
2022/06/30 05:26:28;;;;;;;7.97;4.38;;;;;;;;;;4968369;28;20386;-66
2022/06/30 05:26:48;;;;;;;9.90;4.82;;;;;;;;;;4956355;28;20035;-70
2022/06/30 05:29:33;;;;;;;7.40;4.13;;;;;;;;;;4964425;28;20123;-70
2022/06/30 05:32:19;;;;;;;7.40;4.35;;;;;;;;;;4958087;28;20110;-69
2022/06/30 05:35:05;;;;;;;7.05;4.32;;;;;;;;;;4973566;28;20174;-70
2022/06/30 05:37:50;;;;;;;9.57;4.25;;;;;;;;;;4966462;28;20033;-70
2022/06/30 05:40:36;;;;;;;8.25;5.38;;;;;;;;;;4961689;28;20536;-69
2022/06/30 05:43:21;;;;;;;8.30;4.45;;;;;;;;;;4953804;28;20031;-70
2022/06/30 05:46:07;;;;;;;11.60;5.65;;;;;;;;;;4957199;28;20027;-70
2022/06/30 05:48:52;;;;;;;8.60;4.35;;;;;;;;;;4965893;28;20142;-73
2022/06/30 05:51:38;;;;;;;8.80;4.40;;;;;;;;;;4970082;28;20046;-69
2022/06/30 05:54:23;;;;;;;9.85;4.60;;;;;;;;;;4962213;28;20031;-71
2022/06/30 05:57:09;;;;;;;9.68;4.72;;;;;;;;;;4951904;28;20030;-71
2022/06/30 05:59:55;;;;;;;8.10;4.00;;;;;;;;;;4959488;28;20479;-70
2022/06/30 06:02:40;;;;;;;6.00;4.40;;;;;;;;;;4958159;28;20031;-75
2022/06/30 06:05:26;;;;;;;6.53;4.07;;;;;;;;;;4967667;28;20510;-75
2022/06/30 06:08:12;;;;;;;8.63;4.57;;;;;;;;;;4957118;28;20079;-73
2022/06/30 06:10:58;;;;;;;8.15;4.38;;;;;;;;;;4957612;28;20112;-75
2022/06/30 06:13:43;;;;;;;7.55;4.47;;;;;;;;;;4989515;28;20028;-74
2022/06/30 06:16:29;;;;;;;6.80;4.55;;;;;;;;;;4963199;28;20461;-75
2022/06/30 06:19:15;;;;;;;7.70;4.10;;;;;;;;;;4967701;28;20030;-67
2022/06/30 06:22:01;;;;;;;5.28;3.67;;;;;;;;;;4959843;28;20106;-70
2022/06/30 06:24:46;;;;;;;5.68;4.00;;;;;;;;;;4957346;28;20033;-69
2022/06/30 06:27:32;;;;;;;5.93;3.90;;;;;;;;;;4962045;28;20059;-66
2022/06/30 06:30:17;;;;;;;5.30;3.45;;;;;;;;;;4956016;28;20039;-68
2022/06/30 06:33:03;;;;;;;4.90;3.85;;;;;;;;;;4968749;28;20477;-66
2022/06/30 06:35:48;;;;;;;7.70;4.25;;;;;;;;;;4961888;28;20061;-67
2022/06/30 06:38:34;;;;;;;4.32;3.40;;;;;;;;;;4964214;28;20045;-71
2022/06/30 06:41:23;;;;;;;7.47;3.85;;;;;;;;;;4956694;28;20106;-73
2022/06/30 06:44:08;;;;;;;7.70;3.88;;;;;;;;;;4957344;28;20131;-72
2022/06/30 06:46:54;;;;;;;4.75;3.35;;;;;;;;;;4956120;28;20031;-69
2022/06/30 06:49:40;;;;;;;5.63;3.70;;;;;;;;;;4962086;28;20073;-69
2022/06/30 06:52:27;;;;;;;7.25;4.05;;;;;;;;;;4967933;28;20500;-67
2022/06/30 06:55:12;;;;;;;6.72;3.58;;;;;;;;;;4957169;28;20478;-69
2022/06/30 06:57:58;;;;;;;7.72;3.92;;;;;;;;;;4961731;28;20106;-64
2022/06/30 07:00:43;;;;;;;7.90;3.90;;;;;;;;;;4954199;28;20027;-79
2022/06/30 07:03:30;;;;;;;8.73;4.22;;;;;;;;;;4957604;28;20073;-78
2022/06/30 07:06:16;;;;;;;6.25;4.00;;;;;;;;;;4965925;28;20296;-77
2022/06/30 07:09:02;;;;;;;11.15;4.57;;;;;;;;;;4954712;28;20489;-79
2022/06/30 07:11:48;;;;;;;5.60;3.83;;;;;;;;;;4963853;28;20030;-76
2022/06/30 07:14:33;;;;;;;9.75;4.40;;;;;;;;;;4961587;28;20054;-71
2022/06/30 07:17:20;;;;;;;7.60;3.83;;;;;;;;;;4959846;28;20042;-64
2022/06/30 07:20:05;;;;;;;4.57;3.33;;;;;;;;;;4961668;28;20027;-66
2022/06/30 07:22:51;;;;;;;6.60;3.92;;;;;;;;;;4964670;28;20057;-65
2022/06/30 07:25:37;;;;;;;7.47;3.97;;;;;;;;;;4974227;28;20026;-65
2022/06/30 07:28:22;;;;;;;7.63;4.28;;;;;;;;;;4962767;28;20072;-64
2022/06/30 07:31:09;;;;;;;9.48;4.68;;;;;;;;;;4954381;28;20344;-63
2022/06/30 07:33:54;;;;;;;8.40;4.10;;;;;;;;;;4960245;28;20106;-73
2022/06/30 07:36:41;;;;;;;10.15;4.65;;;;;;;;;;4958372;28;20043;-68
2022/06/30 07:39:26;;;;;;;9.95;4.35;;;;;;;;;;4957279;28;20440;-68
2022/06/30 07:42:12;;;;;;;5.65;3.88;;;;;;;;;;4954836;28;20042;-68
2022/06/30 07:44:58;;;;;;;6.80;4.05;;;;;;;;;;4953312;28;20537;-68
2022/06/30 07:47:44;;;;;;;7.80;3.95;;;;;;;;;;4961625;28;20019;-70
2022/06/30 07:50:31;;;;;;;6.80;3.75;;;;;;;;;;4963079;28;20051;-70
2022/06/30 07:53:16;;;;;;;7.38;3.95;;;;;;;;;;4960313;28;20390;-64
2022/06/30 07:56:03;;;;;;;8.27;4.32;;;;;;;;;;4958365;28;20077;-66
2022/06/30 07:58:48;;;;;;;6.53;4.38;;;;;;;;;;4958087;28;20023;-65
2022/06/30 08:01:34;;;;;;;6.68;3.80;;;;;;;;;;4963088;28;20031;-66
2022/06/30 08:04:19;;;;;;;7.78;4.22;;;;;;;;;;4959557;28;20494;-66
2022/06/30 08:07:05;;;;;;;9.80;4.00;;;;;;;;;;4954087;28;20058;-66
2022/06/30 08:09:50;;;;;;;5.47;3.58;;;;;;;;;;4959046;28;20039;-63
2022/06/30 08:12:36;;;;;;;8.35;4.00;;;;;;;;;;4957077;28;20016;-65
2022/06/30 08:15:22;;;;;;;5.70;3.50;;;;;;;;;;4958981;28;20249;-67
2022/06/30 08:18:08;;;;;;;6.32;3.55;;;;;;;;;;4958527;28;20023;-65
2022/06/30 08:20:53;;;;;;;8.05;3.72;;;;;;;;;;4965485;28;20049;-67
2022/06/30 08:23:40;;;;;;;5.10;3.55;;;;;;;;;;4962370;28;20035;-68
2022/06/30 08:26:25;;;;;;;5.32;4.07;;;;;;;;;;4962619;28;20353;-67
2022/06/30 08:29:14;;;;;;;5.18;3.45;;;;;;;;;;4955091;28;20116;-71
2022/06/30 08:32:00;;;;;;;6.68;3.75;;;;;;;;;;4960436;28;20160;-73
2022/06/30 08:34:46;;;;;;;10.07;4.43;;;;;;;;;;4967379;28;20054;-71
2022/06/30 08:37:31;;;;;;;7.40;3.50;;;;;;;;;;4965667;28;20054;-71
2022/06/30 08:43:24;;;;;;;6.68;3.33;;;;;;;;;;4963048;28;20039;-72
2022/06/30 08:46:11;;;;;;;6.90;3.90;;;;;;;;;;4957676;28;20081;-80
2022/06/30 08:48:57;;;;;;;8.85;3.40;;;;;;;;;;4961851;28;20293;-66
2022/06/30 08:51:43;;;;;;;14.73;3.55;;;;;;;;;;4958951;28;20375;-69
2022/06/30 08:54:29;;;;;;;8.13;3.17;;;;;;;;;;4957681;28;20023;-70
2022/06/30 08:57:15;;;;;;;7.95;3.40;;;;;;;;;;4955859;28;20030;-67
2022/06/30 09:00:00;;;;;;;7.85;3.80;;;;;;;;;;4960162;28;20108;-69
2022/06/30 09:02:46;;;;;;;9.70;3.97;;;;;;;;;;4956742;28;20027;-70
2022/06/30 09:05:32;;;;;;;9.10;3.63;;;;;;;;;;4960400;28;20027;-78
2022/06/30 09:08:18;;;;;;;6.97;3.50;;;;;;;;;;4960333;28;20070;-66
2022/06/30 09:11:03;;;;;;;7.75;3.60;;;;;;;;;;4960940;28;20110;-68
2022/06/30 09:13:49;;;;;;;8.98;3.88;;;;;;;;;;4965108;28;20030;-69
2022/06/30 09:16:36;;;;;;;8.20;3.65;;;;;;;;;;4964143;28;20050;-68
2022/06/30 09:19:22;;;;;;;8.57;4.15;;;;;;;;;;4959636;28;20159;-69
2022/06/30 09:22:14;;;;;;;7.70;3.40;;;;;;;;;;4965145;28;20042;-69
2022/06/30 09:25:07;;;;;;;8.75;3.65;;;;;;;;;;4963130;28;20522;-74
2022/06/30 09:27:52;;;;;;;6.53;2.95;;;;;;;;;;4964329;28;20105;-75
2022/06/30 09:30:38;;;;;;;7.20;3.90;;;;;;;;;;4966351;28;20027;-69
2022/06/30 09:33:32;;;;;;;9.65;3.83;;;;;;;;;;4965995;28;20050;-68
2022/06/30 09:36:18;;;;;;;5.93;3.03;;;;;;;;;;4954955;28;20026;-70
2022/06/30 09:39:06;;;;;;;8.43;3.03;;;;;;;;;;4958834;28;20442;-71
2022/06/30 09:41:52;;;;;;;5.97;3.20;;;;;;;;;;4962495;28;20030;-70
2022/06/30 09:44:38;;;;;;;7.15;2.90;;;;;;;;;;4961960;28;20486;-73
2022/06/30 09:47:23;;;;;;;6.95;2.40;;;;;;;;;;4955170;28;20034;-71
2022/06/30 09:50:09;;;;;;;4.53;3.10;;;;;;;;;;4963733;28;20119;-76
2022/06/30 09:53:05;;;;;;;5.53;2.67;;;;;;;;;;4955066;28;20027;-75
2022/06/30 09:55:50;;;;;;;7.10;3.10;;;;;;;;;;4960930;28;20366;-73
2022/06/30 09:58:38;;;;;;;4.15;2.75;;;;;;;;;;4976605;28;20019;-70
2022/06/30 10:01:24;;;;;;;7.70;3.53;;;;;;;;;;4954041;28;20043;-71
2022/06/30 10:04:10;;;;;;;5.30;2.92;;;;;;;;;;4957816;28;20650;-71
2022/06/30 10:06:56;;;;;;;5.68;3.05;;;;;;;;;;4961173;28;20106;-72
2022/06/30 10:09:42;;;;;;;5.43;3.05;;;;;;;;;;4967729;28;20035;-74
2022/06/30 10:12:27;;;;;;;5.97;3.03;;;;;;;;;;4965355;28;20027;-73
2022/06/30 10:15:14;;;;;;;6.88;3.10;;;;;;;;;;4959976;28;20053;-70
2022/06/30 10:18:01;;;;;;;5.35;3.58;;;;;;;;;;4961436;28;20026;-70
2022/06/30 10:20:46;;;;;;;7.13;3.00;;;;;;;;;;4957810;28;20035;-68
2022/06/30 10:23:32;;;;;;;7.20;3.05;;;;;;;;;;4956387;28;20023;-67
2022/06/30 10:27:19;;;;;;;5.00;3.05;;;;;;;;;;4976099;28;20041;-70
2022/06/30 10:29:33;;;;;;;5.07;2.70;;;;;;;;;;4955836;28;20043;-67
2022/06/30 10:32:31;;;;;;;8.98;2.95;;;;;;;;;;4962055;28;20035;-69
2022/06/30 10:35:16;;;;;;;6.18;2.85;;;;;;;;;;4966128;28;20023;-68
2022/06/30 10:38:05;;;;;;;8.60;3.40;;;;;;;;;;4966084;28;20037;-70
2022/06/30 10:40:56;;;;;;;4.65;2.80;;;;;;;;;;4961879;28;20084;-71
2022/06/30 10:44:09;;;;;;;6.95;2.92;;;;;;;;;;4961651;28;20070;-73
2022/06/30 10:46:55;;;;;;;9.23;3.60;;;;;;;;;;4960648;28;20031;-73
2022/06/30 10:49:51;;;;;;;5.60;3.15;;;;;;;;;;4968457;28;20570;-74
2022/06/30 10:52:36;;;;;;;6.35;4.00;;;;;;;;;;4965069;28;20023;-71
2022/06/30 10:55:22;;;;;;;11.23;3.42;;;;;;;;;;4969403;28;20545;-67
2022/06/30 10:58:08;;;;;;;8.82;3.88;;;;;;;;;;4962387;28;20478;-74
2022/06/30 11:01:01;;;;;;;7.97;3.28;;;;;;;;;;4961305;28;20020;-65
2022/06/30 11:03:49;;;;;;;6.30;2.90;;;;;;;;;;4975272;28;20038;-64
2022/06/30 11:06:53;;;;;;;9.38;3.40;;;;;;;;;;4964543;28;20111;-62
2022/06/30 11:09:47;;;;;;;8.73;3.30;;;;;;;;;;4969189;28;20527;-64
2022/06/30 11:12:34;;;;;;;6.97;4.15;;;;;;;;;;4961548;28;20105;-64
2022/06/30 11:15:20;;;;;;;9.25;5.90;;;;;;;;;;4954783;28;20085;-64
2022/06/30 11:18:06;;;;;;;546.90;455.63;;;;;;;;;;4956402;28;20433;-77
2022/06/30 11:20:52;;;;;;;347.00;205.77;;;;;;;;;;4962468;28;20485;-64
2022/06/30 11:23:39;;;;;;;477.33;411.75;;;;;;;;;;4966459;28;20110;-65
2022/06/30 11:29:29;;;;;;;454.45;384.38;;;;;;;;;;4970576;28;20485;-64
2022/06/30 11:32:14;;;;;;;438.83;371.77;;;;;;;;;;4970791;28;20427;-60
2022/06/30 11:35:00;;;;;;;171.27;136.95;;;;;;;;;;4966453;28;20018;-60
2022/06/30 11:37:47;;;;;;;265.73;212.02;;;;;;;;;;4954141;28;20406;-60
2022/06/30 11:40:33;;;;;;;279.30;240.95;;;;;;;;;;4965659;28;20110;-60
2022/06/30 11:43:20;;;;;;;86.70;74.90;;;;;;;;;;4969430;28;20540;-61
2022/06/30 11:46:06;;;;;;;25.60;21.67;;;;;;;;;;4956190;28;20015;-65
2022/06/30 11:48:51;;;;;;;22.85;16.73;;;;;;;;;;4962024;28;20137;-66
2022/06/30 11:51:37;;;;;;;129.27;107.30;;;;;;;;;;4964794;28;20393;-65
2022/06/30 11:54:24;;;;;;;131.63;112.53;;;;;;;;;;4956342;28;20110;-67
2022/06/30 11:57:10;;;;;;;12.68;7.85;;;;;;;;;;4968053;28;20025;-67
2022/06/30 12:00:00;;;;;;;122.47;105.20;;;;;;;;;;4964602;28;20435;-66
2022/06/30 12:02:46;;;;;;;10.48;4.55;;;;;;;;;;4959950;28;20035;-66
2022/06/30 12:05:32;;;;;;;90.07;78.40;;;;;;;;;;4963282;28;20378;-65
2022/06/30 12:08:17;;;;;;;65.40;54.90;;;;;;;;;;4961230;28;20027;-69
2022/06/30 12:11:04;;;;;;;15.73;11.98;;;;;;;;;;4952510;28;20497;-63
2022/06/30 12:13:53;;;;;;;21.65;14.90;;;;;;;;;;4961651;28;20110;-73
2022/06/30 12:16:39;;;;;;;46.25;41.10;;;;;;;;;;4955551;28;20038;-72
2022/06/30 12:19:25;;;;;;;48.85;42.63;;;;;;;;;;4960453;28;20034;-72
2022/06/30 12:22:11;;;;;;;14.25;7.70;;;;;;;;;;4972919;28;20019;-72
2022/06/30 12:24:57;;;;;;;15.77;12.43;;;;;;;;;;4967052;28;20092;-72
2022/06/30 12:27:42;;;;;;;25.80;22.58;;;;;;;;;;4961951;28;20015;-63
2022/06/30 12:30:32;;;;;;;10.57;7.35;;;;;;;;;;4965107;28;20046;-73
2022/06/30 12:33:18;;;;;;;7.97;4.68;;;;;;;;;;4964517;28;20027;-72
2022/06/30 12:36:03;;;;;;;24.55;17.30;;;;;;;;;;4973285;28;20080;-74
2022/06/30 12:38:49;;;;;;;12.50;7.13;;;;;;;;;;4965763;28;20023;-72
2022/06/30 12:41:34;;;;;;;18.67;13.75;;;;;;;;;;4960435;28;20019;-75
2022/06/30 12:44:35;;;;;;;17.00;13.05;;;;;;;;;;4959041;28;20031;-73
2022/06/30 12:47:20;;;;;;;11.80;9.00;;;;;;;;;;4963083;28;20057;-68
2022/06/30 12:50:24;;;;;;;15.88;11.10;;;;;;;;;;4973018;28;20509;-73
2022/06/30 12:53:17;;;;;;;11.23;4.72;;;;;;;;;;4958472;28;20116;-74
2022/06/30 12:56:17;;;;;;;13.43;9.15;;;;;;;;;;4957019;28;20493;-71
2022/06/30 12:59:09;;;;;;;12.93;9.15;;;;;;;;;;4961893;28;20371;-72
2022/06/30 13:01:57;;;;;;;6.00;3.90;;;;;;;;;;4958328;28;20027;-67
2022/06/30 13:04:50;;;;;;;12.63;8.77;;;;;;;;;;4953028;28;20027;-65
2022/06/30 13:07:36;;;;;;;4.78;3.58;;;;;;;;;;4961568;28;20101;-61
2022/06/30 13:11:04;;;;;;;12.50;7.68;;;;;;;;;;4963967;28;20040;-64
2022/06/30 13:13:28;;;;;;;7.20;4.85;;;;;;;;;;4960697;28;20055;-62
2022/06/30 13:16:15;;;;;;;10.85;5.90;;;;;;;;;;4961514;28;20109;-63
2022/06/30 13:19:02;;;;;;;8.90;5.25;;;;;;;;;;4965183;28;20386;-63
2022/06/30 13:21:48;;;;;;;10.43;6.03;;;;;;;;;;4958124;28;20058;-62
2022/06/30 13:24:34;;;;;;;6.57;4.18;;;;;;;;;;4960606;28;20023;-74
2022/06/30 13:27:19;;;;;;;8.15;4.85;;;;;;;;;;4965309;28;20030;-62
2022/06/30 13:30:05;;;;;;;7.28;4.80;;;;;;;;;;4960817;28;20047;-63
2022/06/30 13:32:51;;;;;;;6.90;3.55;;;;;;;;;;4959148;28;20363;-64
2022/06/30 13:35:36;;;;;;;6.68;4.40;;;;;;;;;;4966099;28;20033;-62
2022/06/30 13:38:23;;;;;;;6.28;3.67;;;;;;;;;;4968230;28;20035;-63
2022/06/30 13:41:08;;;;;;;6.68;4.75;;;;;;;;;;4960411;28;20416;-70
2022/06/30 13:43:54;;;;;;;6.50;4.40;;;;;;;;;;4965676;28;20023;-68
2022/06/30 13:46:39;;;;;;;7.43;4.25;;;;;;;;;;4960560;28;20027;-68
2022/06/30 13:49:25;;;;;;;6.03;4.50;;;;;;;;;;4955984;28;20089;-68
2022/06/30 13:52:11;;;;;;;6.97;4.30;;;;;;;;;;4967884;28;20549;-69
2022/06/30 13:54:56;;;;;;;8.98;4.00;;;;;;;;;;4985437;28;20067;-68
2022/06/30 13:57:42;;;;;;;7.18;3.83;;;;;;;;;;4982469;28;20038;-68
2022/06/30 14:00:28;;;;;;;7.43;4.10;;;;;;;;;;4963335;28;20030;-73
2022/06/30 14:03:13;;;;;;;5.05;3.78;;;;;;;;;;4962874;28;20026;-65
2022/06/30 14:06:00;;;;;;;8.27;3.75;;;;;;;;;;4961568;28;20080;-63
2022/06/30 14:08:46;;;;;;;7.00;3.70;;;;;;;;;;4958033;28;20126;-62
2022/06/30 14:11:31;;;;;;;8.63;3.90;;;;;;;;;;4958487;28;20117;-65
2022/06/30 14:14:17;;;;;;;7.05;3.80;;;;;;;;;;4964584;28;20121;-64
2022/06/30 14:17:03;;;;;;;7.50;3.58;;;;;;;;;;4957215;28;20031;-65
2022/06/30 14:19:48;;;;;;;8.80;4.13;;;;;;;;;;4959997;28;20069;-70
2022/06/30 14:22:34;;;;;;;7.80;3.83;;;;;;;;;;4961157;28;20038;-63
2022/06/30 14:25:20;;;;;;;4.72;3.25;;;;;;;;;;4961238;28;20023;-62
2022/06/30 14:28:06;;;;;;;8.27;3.75;;;;;;;;;;4967387;28;20062;-63
2022/06/30 14:30:51;;;;;;;7.13;3.67;;;;;;;;;;4954833;28;20043;-62
2022/06/30 14:33:37;;;;;;;8.10;3.70;;;;;;;;;;4967472;28;20031;-62
2022/06/30 14:36:22;;;;;;;4.68;3.47;;;;;;;;;;4967005;28;20053;-72
2022/06/30 14:39:08;;;;;;;7.88;4.43;;;;;;;;;;4964595;28;20026;-62
2022/06/30 14:44:58;;;;;;;5.88;3.00;;;;;;;;;;4960292;28;20089;-64
2022/06/30 14:47:43;;;;;;;6.85;3.78;;;;;;;;;;4955333;28;20458;-63
2022/06/30 14:50:29;;;;;;;8.85;3.90;;;;;;;;;;4965761;28;20080;-66
2022/06/30 14:53:14;;;;;;;7.50;3.70;;;;;;;;;;4963904;28;20023;-65
2022/06/30 14:56:00;;;;;;;10.60;4.10;;;;;;;;;;4963221;28;20023;-68
2022/06/30 14:58:46;;;;;;;7.53;3.78;;;;;;;;;;4966668;28;20018;-72
2022/06/30 15:01:31;;;;;;;6.75;3.85;;;;;;;;;;4963727;28;20027;-69
2022/06/30 15:04:17;;;;;;;6.47;3.55;;;;;;;;;;4975760;28;20030;-70
2022/06/30 15:07:06;;;;;;;7.97;3.80;;;;;;;;;;4972972;28;20053;-69
2022/06/30 15:09:51;;;;;;;;;;;;;;;;;;4957244;28;20533;-70
2022/06/30 15:12:37;;;;;;;5.80;4.20;;;;;;;;;;4959001;28;20329;-70
2022/06/30 15:15:22;;;;;;;8.15;4.20;;;;;;;;;;4964967;28;20509;-69
2022/06/30 15:18:08;;;;;;;5.95;3.90;;;;;;;;;;4959048;28;20026;-69
2022/06/30 15:24:10;;;;;;;5.30;3.85;;;;;;;;;;4966479;28;20466;-63
2022/06/30 15:26:56;;;;;;;7.83;4.43;;;;;;;;;;4974274;28;20031;-66
2022/06/30 15:29:44;;;;;;;6.53;3.55;;;;;;;;;;4952308;28;20039;-63
2022/06/30 15:32:31;;;;;;;9.03;3.97;;;;;;;;;;4963310;28;20035;-62
2022/06/30 15:35:17;;;;;;;7.18;4.78;;;;;;;;;;4954334;28;20549;-63
2022/06/30 15:38:03;;;;;;;7.15;4.57;;;;;;;;;;4960422;28;20512;-64
2022/06/30 15:40:48;;;;;;;11.82;4.70;;;;;;;;;;4958878;28;20065;-62
2022/06/30 15:43:34;;;;;;;10.70;5.05;;;;;;;;;;4958243;28;20034;-64
2022/06/30 15:46:19;;;;;;;8.90;5.25;;;;;;;;;;4957573;28;20115;-64
2022/06/30 15:49:05;;;;;;;7.32;5.07;;;;;;;;;;4965157;28;20074;-62
2022/06/30 15:51:50;;;;;;;8.20;4.82;;;;;;;;;;4958089;28;20038;-68
2022/06/30 15:54:39;;;;;;;14.23;7.07;;;;;;;;;;4962824;28;20110;-68
2022/06/30 15:57:25;;;;;;;8.65;4.32;;;;;;;;;;4964732;28;20034;-68
2022/06/30 16:00:11;;;;;;;9.07;5.32;;;;;;;;;;4960624;28;20035;-68
2022/06/30 16:02:57;;;;;;;7.93;5.00;;;;;;;;;;4959558;28;20106;-69
2022/06/30 16:05:43;;;;;;;7.03;4.63;;;;;;;;;;4955114;28;20023;-68
2022/06/30 16:08:28;;;;;;;10.57;5.55;;;;;;;;;;4959723;28;20458;-71
2022/06/30 16:11:14;;;;;;;7.30;4.97;;;;;;;;;;4961317;28;20042;-64
2022/06/30 16:14:02;;;;;;;10.23;5.13;;;;;;;;;;4966499;28;20019;-64
2022/06/30 16:16:47;;;;;;;6.45;4.82;;;;;;;;;;4966224;28;20031;-63
2022/06/30 16:19:33;;;;;;;8.90;5.65;;;;;;;;;;4964914;28;20106;-64
2022/06/30 16:22:19;;;;;;;12.27;5.75;;;;;;;;;;4972623;28;20087;-64
2022/06/30 16:25:07;;;;;;;15.70;6.63;;;;;;;;;;4966383;28;20109;-65
2022/06/30 16:27:56;;;;;;;9.57;5.73;;;;;;;;;;4955046;28;20389;-63
2022/06/30 16:30:42;;;;;;;8.50;6.03;;;;;;;;;;4963854;28;20038;-65
2022/06/30 16:33:27;;;;;;;8.15;4.75;;;;;;;;;;4970024;28;20500;-66
2022/06/30 16:36:13;;;;;;;10.20;5.97;;;;;;;;;;4971488;28;20041;-64
2022/06/30 16:38:58;;;;;;;9.48;5.85;;;;;;;;;;4965380;28;20553;-64
2022/06/30 16:41:44;;;;;;;11.18;5.75;;;;;;;;;;4963416;28;20096;-65
2022/06/30 16:44:29;;;;;;;10.48;6.43;;;;;;;;;;4967762;28;20074;-66
2022/06/30 16:47:15;;;;;;;10.40;5.88;;;;;;;;;;4967617;28;20072;-65
2022/06/30 16:50:03;;;;;;;9.40;5.40;;;;;;;;;;4962181;28;20046;-71
2022/06/30 16:52:48;;;;;;;8.45;5.57;;;;;;;;;;4975460;28;20023;-69
2022/06/30 16:55:34;;;;;;;10.07;5.30;;;;;;;;;;4972078;28;20034;-69